Thursday, September 20, 2018, 10:10 PM EDT
Back to Local

KLBE, Latrobe / Westmorland

Location: Latrobe, PA, United States Lat: 40.283
Local Time: 10:10 PM EDT ( 2:10 GMT) Lon: -79.4
Time Zone: US/Eastern Elev: 1184 ft

Show me the last for .
Show Coded

Time T Td Feel RH Dir Speed Gust Alt SLP Vis Weather Sky Remarks
2018-09-20 21:50 75 70 79 83 210° 7 - 30.13 - 15 CLR None
2018-09-20 20:50 73 68 77 83 190° 5 - 30.13 - 15 CLR None
2018-09-20 19:50 75 70 79 83 - Calm - 30.11 - 15 CLR None
2018-09-20 18:50 81 66 83 61 180° 5 - 30.11 - 15 CLR None
2018-09-20 17:50 82 66 85 58 210° 6 - 30.11 - 15 FEW100 None
2018-09-20 16:50 82 66 85 58 240° 6 - 30.11 - 10 FEW040 None
2018-09-20 15:50 82 64 85 54 220° 6 - 30.12 - 10 FEW040 None
2018-09-20 14:50 82 66 85 58 240° 7 - 30.13 - 10 FEW040 None
2018-09-20 13:50 81 66 83 61 270° 6 - 30.15 - 10 FEW040 None
2018-09-20 12:50 81 66 83 61 - Calm - 30.17 - 10 FEW040 None
2018-09-20 11:50 79 66 81 65 240° 6 - 30.18 - 15 CLR None
2018-09-20 10:50 75 66 78 73 - Calm - 30.18 - 15 CLR None
2018-09-20 09:50 68 68 - 100 - Calm - 30.17 - 15 CLR None
2018-09-20 08:50 63 63 - 100 - Calm - 30.16 - 15 CLR None
2018-09-20 07:50 59 59 - 100 - Calm - 30.15 - 10 CLR None
2018-09-20 06:50 59 59 - 100 - Calm - 30.13 - 10 CLR None
2018-09-20 05:55 59 59 - 100 - Calm - 30.12 - 8 CLR None
2018-09-20 05:35 57 57 - 100 - Calm - 30.12 - 8 CLR None
2018-09-20 05:15 59 59 - 100 - Calm - 30.10 - 8 CLR None
2018-09-20 04:55 59 59 - 100 - Calm - 30.09 - 7 CLR None
2018-09-20 04:35 59 59 - 100 - Calm - 30.08 - 8 CLR None
2018-09-20 04:15 59 59 - 100 - Calm - 30.09 - 7 CLR None
2018-09-20 03:55 57 59 - 106 - Calm - 30.08 - 5 BR CLR None
2018-09-20 03:35 59 59 - 100 - Calm - 30.08 - 0 FG VV000 None
2018-09-20 03:15 61 61 - 100 - Calm - 30.08 - 4 BR CLR None
2018-09-20 02:55 61 61 - 100 - Calm - 30.10 - 0 BR VV005 None
2018-09-20 02:35 59 59 - 100 - Calm - 30.10 - 3 BR CLR None
2018-09-20 02:15 61 61 - 100 - Calm - 30.10 - 0 BR VV005 Variable visibility
2018-09-20 01:55 61 61 - 100 - Calm - 30.10 - 1 BR CLR None
2018-09-20 01:35 61 61 - 100 - Calm - 30.10 - 2 BR CLR Variable visibility
2018-09-20 01:15 63 63 - 100 - Calm - 30.10 - 9 CLR None
2018-09-20 00:55 63 63 - 100 - Calm - 30.11 - 10 CLR None
2018-09-20 00:35 63 63 - 100 - Calm - 30.11 - 10 CLR None
2018-09-20 00:15 63 63 - 100 - Calm - 30.11 - 10 CLR None
2018-09-19 23:55 63 63 - 100 - - - 30.11 - 10 CLR None
2018-09-19 23:35 64 64 - 100 - Calm - 30.11 - 10 CLR None
2018-09-19 23:15 64 64 - 100 - Calm - 30.11 - 10 CLR None
2018-09-19 22:55 64 64 - 100 - Calm - 30.11 - 10 CLR None
2018-09-19 22:35 64 64 - 100 - Calm - 30.10 - 10 CLR None
2018-09-19 22:15 64 64 - 100 - Calm - 30.10 - 10 CLR None

Support USWX by starting your Amazon purchase here.